Webcam

2019/12/05 23:50 EBBR 052350Z 22012KT 8000 BKN009 02/00 Q1017 NOSIG

Webcam

--- Refresh now ---